Hlavní strana
METAR-TAF:

METAR-TAF

Letiště :

Jönköping, Švédsko

zeměpisná šířka: 57-46N, zeměpisná délka: 014-05E, výška: 226 m

Aktuální stav počasí

Zpráva byla vytvořena před 33 minutami, v 08:20 UTC
Severoseverovýchodní vítr 13 kt
Teplota 0°C
Vlhkost vzduchu 64%
Tlak 1017 hPa
Viditelnost 10 km a více
Žádná oblačnost pod 1500 m, nevyskytují se cumulonimby.

METAR: ESGJ 040820Z 02013KT CAVOK M00/M06 Q1017 R01/09//70

Čas: 09:53 (08:53 UTC)

Předpověď počasí

Zpráva byla vytvořena před 23 minutami, v 08:30 UTC
Předpověď platná od 04 v 09 UTC do 04 v 18 UTC
Severní vítr 10 kt
Viditelnost 10 km a více
Žádná oblačnost pod 1500 m, nevyskytují se cumulonimby.

TAF: ESGJ 040830Z 0409/0418 01010KT CAVOK

Stav a předpovědi počasí z více než 4 000 letišť (zprávy METAR a TAF).

Červené a žluté tečky na mapě představují dostupné meteorologické stanice.

Když kurzor umístíte na tečku, zobrazí se název stanice.

Pak kliknutím zobrazíte stav a předpověď počasí.

Chcete-li změnit mapu, kliknutím na zelené tlačítko se znaménkem +mapu přiblížíte, kliknutím na zelené tlačítko se znaménkem – mapu oddálíte a kliknutím na zelené šipky přejdete na sousední mapy.


METAR-TAF: